Ocean Honey — VRDL3 — position and weather

sailwx.info

Track history (hours):
 
Tides and Currents Weather Stations Pressure Air Temp Water Temp Dewpoint Dewpoint Depression Visibility Wind Speed Wind Dir Waves Ship Positions

Ocean Honey

Last reported at 2014-Oct-26 10:14 UTC. Time now 2014-Oct-31 15:08 UTC.
Position S 35°10' W 056°50'.

Length 167 m; draft 9.9 m.

Type: Cargo ship. MMSI: 477003100.

Date/timePositionNaut miles runAvg speedWind from/ knotsBaromVisibWave heightAir tempDewpointWater temp
2014-Oct-26 10:14S 35°10' W 056°50'19 9.1
2014-Oct-26 08:06S 35°01' W 057°11'7 9.9
2014-Oct-26 07:24S 34°56' W 057°17'18 9.6
2014-Oct-26 05:32S 34°46' W 057°35'1010.5
2014-Oct-26 04:34S 34°44' W 057°47'8 7.6
2014-Oct-26 03:33S 34°41' W 057°56'1110.7
2014-Oct-26 02:33S 34°38' W 058°08'1010.0
2014-Oct-26 01:33S 34°33' W 058°19'9 9.4
2014-Oct-26 00:33S 34°25' W 058°26'9 9.4
2014-Oct-25 23:33S 34°18' W 058°33'1010.0
2014-Oct-25 22:33S 34°15' W 058°44'9 9.2
2014-Oct-25 21:33S 34°11' W 058°54'16 8.0
2014-Oct-25 19:33S 33°60' W 059°08'  
2014-Oct-22 03:14S 34°10' W 058°15'6 9.1
2014-Oct-22 02:33S 34°12' W 058°08'9 8.6
2014-Oct-22 01:33S 34°19' W 058°01'10 9.7
2014-Oct-22 00:33S 34°28' W 057°57'1110.5
2014-Oct-21 23:33S 34°38' W 057°58'10 9.6
2014-Oct-21 22:33S 34°45' W 057°49'8 8.1
2014-Oct-21 21:33S 34°45' W 057°39'2311.2
2014-Oct-21 19:30S 34°57' W 057°15'  
Track history (hours):
 
Tides and Currents Weather Stations Pressure Air Temp Water Temp Dewpoint Dewpoint Depression Visibility Wind Speed Wind Dir Waves Ship Positions

Ocean Honey

Last reported at 2014-Oct-26 10:14 UTC. Time now 2014-Oct-31 15:08 UTC.
Position S 35°10' W 056°50'.

Length 167 m; draft 9.9 m.

Type: Cargo ship. MMSI: 477003100.

Date/timePositionNaut miles runAvg speedWind from/ knotsBaromVisibWave heightAir tempDewpointWater temp
2014-Oct-26 10:14S 35°10' W 056°50'19 9.1
2014-Oct-26 08:06S 35°01' W 057°11'7 9.9
2014-Oct-26 07:24S 34°56' W 057°17'18 9.6
2014-Oct-26 05:32S 34°46' W 057°35'1010.5
2014-Oct-26 04:34S 34°44' W 057°47'8 7.6
2014-Oct-26 03:33S 34°41' W 057°56'1110.7
2014-Oct-26 02:33S 34°38' W 058°08'1010.0
2014-Oct-26 01:33S 34°33' W 058°19'9 9.4
2014-Oct-26 00:33S 34°25' W 058°26'9 9.4
2014-Oct-25 23:33S 34°18' W 058°33'1010.0
2014-Oct-25 22:33S 34°15' W 058°44'9 9.2
2014-Oct-25 21:33S 34°11' W 058°54'16 8.0
2014-Oct-25 19:33S 33°60' W 059°08'  
2014-Oct-22 03:14S 34°10' W 058°15'6 9.1
2014-Oct-22 02:33S 34°12' W 058°08'9 8.6
2014-Oct-22 01:33S 34°19' W 058°01'10 9.7
2014-Oct-22 00:33S 34°28' W 057°57'1110.5
2014-Oct-21 23:33S 34°38' W 057°58'10 9.6
2014-Oct-21 22:33S 34°45' W 057°49'8 8.1
2014-Oct-21 21:33S 34°45' W 057°39'2311.2
2014-Oct-21 19:30S 34°57' W 057°15'  

Dump ship's entire track history